Time;durP1;ratioP1;P1;durP2;ratioP2;P2;SDS_P1;SDS_P2;PMS_P1;PMS_P2;Temp;Humidity;BMP_temperature;BMP_pressure;BME280_temperature;BME280_humidity;BME280_pressure;Samples;Min_cycle;Max_cycle;Signal;HPM_P1;HPM_P2
2024/02/13 00:00:30;;;;;;;14.70;5.10;;;;;;;-146.25;100.00;52692.63;2079516;28;34212;-66
2024/02/13 00:01:33;;;;;;;11.52;4.63;;;;;;;-146.25;100.00;52676.41;2079417;28;36166;-65
2024/02/13 00:02:37;;;;;;;11.93;4.68;;;;;;;-146.25;100.00;52682.47;2079342;28;36787;-65
2024/02/13 00:03:39;;;;;;;19.02;5.20;;;;;;;-146.25;100.00;52696.69;2080386;28;34021;-65
2024/02/13 00:04:41;;;;;;;13.73;5.00;;;;;;;-146.25;100.00;52698.72;2079120;28;35168;-65
2024/02/13 00:05:43;;;;;;;15.88;4.95;;;;;;;-146.25;100.00;52723.03;2080343;28;31207;-65
2024/02/13 00:06:45;;;;;;;10.75;5.07;;;;;;;-146.25;100.00;52704.78;2079221;28;33453;-65
2024/02/13 00:07:48;;;;;;;12.50;5.03;;;;;;;-146.25;100.00;52692.63;2079844;28;35575;-65
2024/02/13 00:08:50;;;;;;;15.40;5.07;;;;;;;-146.25;100.00;52700.72;2079373;28;34627;-65
2024/02/13 00:09:52;;;;;;;18.88;5.10;;;;;;;-146.25;100.00;52658.16;2078811;28;35870;-64
2024/02/13 00:10:54;;;;;;;11.40;4.80;;;;;;;-146.25;100.00;52643.97;2079620;28;33725;-65
2024/02/13 00:11:56;;;;;;;13.50;4.65;;;;;;;-146.25;100.00;52672.34;2079908;28;22891;-65
2024/02/13 00:12:58;;;;;;;16.33;4.53;;;;;;;-146.25;100.00;52674.38;2079907;28;25335;-65
2024/02/13 00:14:00;;;;;;;9.85;4.53;;;;;;;-146.25;100.00;52688.56;2080345;28;25179;-65
2024/02/13 00:15:02;;;;;;;14.30;5.13;;;;;;;-146.25;100.00;52668.28;2079517;28;30052;-65
2024/02/13 00:16:04;;;;;;;11.27;4.32;;;;;;;-146.25;100.00;52684.50;2079946;28;28969;-65
2024/02/13 00:17:06;;;;;;;11.98;4.55;;;;;;;-146.25;100.00;52696.69;2079780;28;20820;-65
2024/02/13 00:18:10;;;;;;;11.73;4.50;;;;;;;-146.25;100.00;52708.84;2080513;28;20047;-65
2024/02/13 00:19:14;;;;;;;15.65;4.90;;;;;;;-146.25;100.00;52662.22;2079478;28;28870;-64
2024/02/13 00:20:17;;;;;;;12.93;5.10;;;;;;;-146.25;100.00;52652.06;2079669;28;28037;-65
2024/02/13 00:21:19;;;;;;;14.73;4.88;;;;;;;-146.25;100.00;52652.06;2079633;28;29877;-65
2024/02/13 00:22:21;;;;;;;16.20;5.38;;;;;;;-146.25;100.00;52676.41;2079640;28;25440;-65
2024/02/13 00:23:23;;;;;;;15.35;4.68;;;;;;;-146.25;100.00;52721.00;2080251;28;20038;-65
2024/02/13 00:24:25;;;;;;;11.63;4.20;;;;;;;-146.25;100.00;52654.09;2079551;28;35391;-65
2024/02/13 00:25:28;;;;;;;14.85;5.30;;;;;;;-146.25;100.00;52716.97;2079923;28;20201;-65
2024/02/13 00:26:32;;;;;;;17.48;4.80;;;;;;;-146.25;100.00;52698.72;2079536;28;35814;-65
2024/02/13 00:27:35;;;;;;;10.13;3.90;;;;;;;-146.25;100.00;52674.38;2079389;28;33520;-65
2024/02/13 00:28:38;;;;;;;12.82;4.80;;;;;;;-146.25;100.00;52660.19;2079948;28;20176;-65
2024/02/13 00:29:39;;;;;;;8.88;4.18;;;;;;;-146.25;100.00;52658.16;2078780;28;33361;-65
2024/02/13 00:30:43;;;;;;;13.32;4.38;;;;;;;-146.25;100.00;52682.47;2078779;28;32442;-66
2024/02/13 00:31:45;;;;;;;13.40;4.50;;;;;;;-146.25;100.00;52670.31;2079774;28;20160;-64
2024/02/13 00:32:47;;;;;;;11.45;4.05;;;;;;;-146.25;100.00;52652.06;2079650;28;32431;-65
2024/02/13 00:33:49;;;;;;;10.80;4.30;;;;;;;-146.25;100.00;52656.13;2079377;28;33938;-64
2024/02/13 00:34:51;;;;;;;10.27;4.10;;;;;;;-146.25;100.00;52708.84;2079619;28;33279;-65
2024/02/13 00:35:53;;;;;;;9.65;4.00;;;;;;;-146.25;100.00;52684.50;2078937;28;34331;-65
2024/02/13 00:37:00;;;;;;;12.18;4.18;;;;;;;-146.25;100.00;52688.56;2079594;28;33959;-65
2024/02/13 00:38:03;;;;;;;12.70;3.30;;;;;;;-146.25;100.00;52680.47;2080300;28;20880;-65
2024/02/13 00:39:05;;;;;;;11.93;3.63;;;;;;;-146.25;100.00;52696.69;2079426;28;36943;-65
2024/02/13 00:40:09;;;;;;;13.88;3.63;;;;;;;-146.25;100.00;52652.06;2079033;28;31890;-65
2024/02/13 00:41:14;;;;;;;11.95;3.78;;;;;;;-146.25;100.00;52660.19;2078695;28;32111;-65
2024/02/13 00:42:16;;;;;;;11.68;3.70;;;;;;;-146.25;100.00;52670.31;2078367;28;35693;-65
2024/02/13 00:43:19;;;;;;;9.93;3.30;;;;;;;-146.25;100.00;52682.47;2080946;28;21070;-65
2024/02/13 00:44:25;;;;;;;9.52;3.35;;;;;;;-146.25;100.00;52672.34;2078739;28;37383;-65
2024/02/13 00:45:27;;;;;;;12.07;3.17;;;;;;;-146.25;100.00;52676.41;2079479;28;33894;-65
2024/02/13 00:46:29;;;;;;;11.02;3.50;;;;;;;-146.25;100.00;52712.91;2079229;28;33461;-65
2024/02/13 00:47:34;;;;;;;8.10;2.83;;;;;;;-146.25;100.00;52676.41;2079244;28;34459;-65
2024/02/13 00:48:36;;;;;;;9.90;3.05;;;;;;;-146.25;100.00;52652.06;2078979;28;32466;-65
2024/02/13 00:49:37;;;;;;;8.40;3.00;;;;;;;-146.25;100.00;52696.69;2079539;28;33760;-65
2024/02/13 00:50:39;;;;;;;6.57;2.92;;;;;;;-146.25;100.00;52723.03;2079386;28;35517;-65
2024/02/13 00:51:41;;;;;;;8.88;3.20;;;;;;;-146.25;100.00;52694.66;2078338;28;34012;-65
2024/02/13 00:52:43;;;;;;;10.52;3.13;;;;;;;-146.25;100.00;52678.44;2078060;28;20174;-65
2024/02/13 00:53:47;;;;;;;11.90;4.05;;;;;;;-146.25;100.00;52749.41;2079865;28;20064;-65
2024/02/13 00:54:49;;;;;;;11.57;3.40;;;;;;;-146.25;100.00;52678.44;2079129;28;30095;-65
2024/02/13 00:55:53;;;;;;;8.40;3.20;;;;;;;-146.25;100.00;52710.88;2079555;28;20968;-65
2024/02/13 00:56:55;;;;;;;14.15;3.38;;;;;;;-146.25;100.00;52690.59;2079241;28;35353;-65
2024/02/13 00:57:58;;;;;;;7.90;3.00;;;;;;;-146.25;100.00;52692.63;2079396;28;26249;-65
2024/02/13 00:59:03;;;;;;;7.75;2.92;;;;;;;-146.25;100.00;52684.50;2079431;28;31965;-65
2024/02/13 01:00:09;;;;;;;13.13;3.10;;;;;;;-146.25;100.00;52619.63;2079267;28;34476;-65
2024/02/13 01:01:11;;;;;;;8.00;3.05;;;;;;;-146.25;100.00;52696.69;2079777;28;20176;-65
2024/02/13 01:02:16;;;;;;;6.80;3.22;;;;;;;-146.25;100.00;52660.19;2078371;28;38722;-65
2024/02/13 01:03:19;;;;;;;13.27;3.67;;;;;;;-146.25;100.00;52692.63;2078803;28;36748;-65
2024/02/13 01:04:21;;;;;;;10.90;3.00;;;;;;;-146.25;100.00;52684.50;2079243;28;30467;-65
2024/02/13 01:05:22;;;;;;;8.40;2.85;;;;;;;-146.25;100.00;52666.25;2079528;28;38853;-65
2024/02/13 01:06:27;;;;;;;12.23;3.15;;;;;;;-146.25;100.00;52676.41;2079050;28;20046;-65
2024/02/13 01:07:31;;;;;;;12.77;3.08;;;;;;;-146.25;100.00;52684.50;2078488;28;35734;-65
2024/02/13 01:08:33;;;;;;;10.20;2.80;;;;;;;-146.25;100.00;52698.72;2079251;28;35008;-65
2024/02/13 01:09:35;;;;;;;9.27;3.17;;;;;;;-146.25;100.00;52678.44;2079140;28;35842;-65
2024/02/13 01:10:36;;;;;;;10.88;3.35;;;;;;;-146.25;100.00;52660.19;2079155;28;34992;-65
2024/02/13 01:11:38;;;;;;;7.20;2.85;;;;;;;-146.25;100.00;52698.72;2081084;28;31366;-65
2024/02/13 01:12:40;;;;;;;8.50;3.13;;;;;;;-146.25;100.00;52708.84;2080885;28;24074;-65
2024/02/13 01:13:42;;;;;;;6.13;2.83;;;;;;;-146.25;100.00;52704.78;2081056;28;20034;-65
2024/02/13 01:14:44;;;;;;;9.30;3.10;;;;;;;-146.25;100.00;52674.38;2081220;28;29344;-65
2024/02/13 01:15:46;;;;;;;13.23;3.15;;;;;;;-146.25;100.00;52676.41;2081017;28;20077;-65
2024/02/13 01:16:48;;;;;;;8.68;3.08;;;;;;;-146.25;100.00;52672.34;2081237;28;27955;-65
2024/02/13 01:17:50;;;;;;;8.65;2.65;;;;;;;-146.25;100.00;52684.50;2080669;28;28043;-65
2024/02/13 01:18:52;;;;;;;10.75;3.05;;;;;;;-146.25;100.00;52652.06;2081027;28;20169;-65
2024/02/13 01:19:57;;;;;;;9.15;3.10;;;;;;;-146.25;100.00;52688.56;2079918;28;37580;-65
2024/02/13 01:20:59;;;;;;;10.40;3.78;;;;;;;-146.25;100.00;52694.66;2073231;28;20034;-65
2024/02/13 01:22:00;;;;;;;9.27;3.53;;;;;;;-146.25;100.00;52725.06;2079457;28;35985;-65
2024/02/13 01:23:06;;;;;;;10.73;3.80;;;;;;;-146.25;100.00;52654.09;2081525;28;29068;-64
2024/02/13 01:24:10;;;;;;;13.55;4.15;;;;;;;-146.25;100.00;52682.47;2081153;28;21083;-65
2024/02/13 01:25:14;;;;;;;9.35;4.03;;;;;;;-146.25;100.00;52648.00;2080290;28;38311;-65
2024/02/13 01:26:19;;;;;;;9.15;3.30;;;;;;;-146.25;100.00;52684.50;2080238;28;37763;-63
2024/02/13 01:27:21;;;;;;;10.18;3.85;;;;;;;-146.25;100.00;52678.44;2080515;28;35841;-65
2024/02/13 01:28:23;;;;;;;14.35;4.25;;;;;;;-146.25;100.00;52676.41;2081049;28;35546;-65
2024/02/13 01:29:24;;;;;;;12.18;4.28;;;;;;;-146.25;100.00;52688.56;2080784;28;33823;-65
2024/02/13 01:30:26;;;;;;;13.07;4.13;;;;;;;-146.25;100.00;52658.16;2080421;28;34562;-65
2024/02/13 01:31:31;;;;;;;9.70;4.15;;;;;;;-146.25;100.00;52666.25;2080644;28;33022;-65
2024/02/13 01:32:33;;;;;;;12.80;4.90;;;;;;;-146.25;100.00;52694.66;2080219;28;37200;-65
2024/02/13 01:33:35;;;;;;;8.73;4.50;;;;;;;-146.25;100.00;52682.47;2088353;28;36475;-65
2024/02/13 01:34:37;;;;;;;12.38;4.55;;;;;;;-146.25;100.00;52680.47;2088190;28;20064;-65
2024/02/13 01:35:42;;;;;;;13.23;4.82;;;;;;;-146.25;100.00;52704.78;2080702;28;38382;-65
2024/02/13 01:36:46;;;;;;;9.07;4.32;;;;;;;-146.25;100.00;52696.69;2080708;28;35961;-64
2024/02/13 01:37:48;;;;;;;9.20;5.00;;;;;;;-146.25;100.00;52712.91;2072284;28;28159;-64
2024/02/13 01:38:50;;;;;;;12.10;5.00;;;;;;;-146.25;100.00;52672.34;2073059;28;20077;-64
2024/02/13 01:39:53;;;;;;;13.43;4.70;;;;;;;-146.25;100.00;52676.41;2072059;28;32871;-64
2024/02/13 01:40:56;;;;;;;12.95;4.95;;;;;;;-146.25;100.00;52725.06;2072397;28;34442;-64
2024/02/13 01:41:57;;;;;;;10.90;4.97;;;;;;;-146.25;100.00;52682.47;2072435;28;34983;-64
2024/02/13 01:42:59;;;;;;;15.35;5.57;;;;;;;-146.25;100.00;52678.44;2072470;28;35868;-65
2024/02/13 01:44:03;;;;;;;14.82;5.47;;;;;;;-146.25;100.00;52700.72;2072590;28;20049;-65
2024/02/13 01:45:07;;;;;;;13.45;5.65;;;;;;;-146.25;100.00;52668.28;2072378;28;36323;-65
2024/02/13 01:46:11;;;;;;;13.38;5.50;;;;;;;-146.25;100.00;52686.53;2072251;28;36988;-64
2024/02/13 01:47:13;;;;;;;13.52;5.60;;;;;;;-146.25;100.00;52648.00;2072519;28;20181;-65
2024/02/13 01:48:21;;;;;;;12.50;6.28;;;;;;;-146.25;100.00;52700.72;2072387;28;20042;-64
2024/02/13 01:49:24;;;;;;;14.75;6.20;;;;;;;-146.25;100.00;52686.53;2073134;28;20170;-65
2024/02/13 01:50:27;;;;;;;11.80;5.65;;;;;;;-146.25;100.00;52668.28;2072605;28;34351;-65
2024/02/13 01:51:34;;;;;;;16.60;6.22;;;;;;;-146.25;100.00;52716.97;2071913;28;33809;-65
2024/02/13 01:52:37;;;;;;;12.73;6.32;;;;;;;-146.25;100.00;52686.53;2078103;28;33462;-65
2024/02/13 01:53:40;;;;;;;15.20;6.75;;;;;;;-146.25;100.00;52686.53;2079974;28;35847;-65
2024/02/13 01:54:42;;;;;;;16.13;6.35;;;;;;;-146.25;100.00;52708.84;2079965;28;20105;-65
2024/02/13 01:55:47;;;;;;;16.08;6.07;;;;;;;-146.25;100.00;52684.50;2080037;28;34642;-64
2024/02/13 01:56:50;;;;;;;18.98;6.65;;;;;;;-146.25;100.00;52670.31;2080584;28;32147;-65
2024/02/13 01:57:54;;;;;;;16.88;6.57;;;;;;;-146.25;100.00;52721.00;2080083;28;34506;-64
2024/02/13 01:58:59;;;;;;;14.35;6.43;;;;;;;-146.25;100.00;52690.59;2080418;28;37010;-65
2024/02/13 02:00:15;;;;;;;12.95;6.90;;;;;;;-146.25;100.00;52712.91;2080155;28;20081;-65
2024/02/13 02:01:17;;;;;;;18.60;6.45;;;;;;;-146.25;100.00;52694.66;2079991;28;33663;-65
2024/02/13 02:02:19;;;;;;;11.35;6.60;;;;;;;-146.25;100.00;52716.97;2080321;28;36932;-65
2024/02/13 02:03:23;;;;;;;14.15;6.32;;;;;;;-146.25;100.00;52670.31;2080393;28;35736;-65
2024/02/13 02:04:30;;;;;;;14.35;6.88;;;;;;;-146.25;100.00;52682.47;2079667;28;37537;-65
2024/02/13 02:05:32;;;;;;;10.73;6.55;;;;;;;-146.25;100.00;52658.16;2079601;28;35662;-65
2024/02/13 02:06:34;;;;;;;15.32;6.53;;;;;;;-146.25;100.00;52704.78;2080438;28;34055;-65
2024/02/13 02:07:40;;;;;;;15.38;6.85;;;;;;;-146.25;100.00;52688.56;2079204;28;36583;-65
2024/02/13 02:08:43;;;;;;;15.93;6.85;;;;;;;-146.25;100.00;52680.47;2079748;28;34533;-65
2024/02/13 02:09:45;;;;;;;12.43;6.68;;;;;;;-146.25;100.00;52708.84;2080430;28;29772;-65
2024/02/13 02:10:48;;;;;;;16.95;7.00;;;;;;;-146.25;100.00;52662.22;2079615;28;35064;-65
2024/02/13 02:11:50;;;;;;;13.98;7.55;;;;;;;-146.25;100.00;52678.44;2079737;28;31473;-65
2024/02/13 02:12:53;;;;;;;15.30;7.13;;;;;;;-146.25;100.00;52652.06;2081287;28;20042;-64
2024/02/13 02:13:57;;;;;;;13.23;7.03;;;;;;;-146.25;100.00;52718.97;2079681;28;32422;-65
2024/02/13 02:15:01;;;;;;;16.13;7.38;;;;;;;-146.25;100.00;52635.84;2080065;28;30510;-65
2024/02/13 02:16:07;;;;;;;14.90;7.28;;;;;;;-146.25;100.00;52678.44;2079950;28;27948;-65
2024/02/13 02:17:09;;;;;;;15.98;8.15;;;;;;;-146.25;100.00;52680.47;2080491;28;36100;-64
2024/02/13 02:18:12;;;;;;;15.90;7.57;;;;;;;-146.25;100.00;52682.47;2079938;28;34974;-65
2024/02/13 02:19:14;;;;;;;16.40;7.90;;;;;;;-146.25;100.00;52676.41;2081040;28;20569;-64
2024/02/13 02:20:17;;;;;;;14.68;8.48;;;;;;;-146.25;100.00;52690.59;2080212;28;33481;-65
2024/02/13 02:21:19;;;;;;;15.18;8.63;;;;;;;-146.25;100.00;52672.34;2080286;28;37995;-65
2024/02/13 02:22:20;;;;;;;17.10;8.07;;;;;;;-146.25;100.00;52660.19;2078424;28;35416;-65
2024/02/13 02:23:22;;;;;;;21.80;9.13;;;;;;;-146.25;100.00;52680.47;2079419;28;34845;-65
2024/02/13 02:24:26;;;;;;;20.40;9.80;;;;;;;-146.25;100.00;52688.56;2080963;28;20042;-65
2024/02/13 02:25:31;;;;;;;17.25;9.02;;;;;;;-146.25;100.00;52680.47;2080420;28;37429;-65
2024/02/13 02:26:33;;;;;;;19.40;9.10;;;;;;;-146.25;100.00;52686.53;2079758;28;33673;-65
2024/02/13 02:27:35;;;;;;;19.20;9.35;;;;;;;-146.25;100.00;52650.03;2080766;28;20929;-63
2024/02/13 02:28:39;;;;;;;20.90;9.70;;;;;;;-146.25;100.00;52660.19;2079830;28;37198;-65
2024/02/13 02:29:41;;;;;;;18.80;9.68;;;;;;;-146.25;100.00;52680.47;2079892;28;40315;-65
2024/02/13 02:30:44;;;;;;;26.10;9.82;;;;;;;-146.25;100.00;52706.81;2079728;28;34355;-65
2024/02/13 02:31:49;;;;;;;16.02;9.52;;;;;;;-146.25;100.00;52678.44;2080128;28;36719;-64
2024/02/13 02:32:51;;;;;;;20.08;10.43;;;;;;;-146.25;100.00;52688.56;2080675;28;20042;-64
2024/02/13 02:33:55;;;;;;;27.60;10.98;;;;;;;-146.25;100.00;52692.63;2080144;28;35755;-65
2024/02/13 02:34:58;;;;;;;24.17;10.80;;;;;;;-146.25;100.00;52680.47;2079775;28;34386;-65
2024/02/13 02:36:00;;;;;;;21.55;10.65;;;;;;;-146.25;100.00;52690.59;2080590;28;33096;-64
2024/02/13 02:37:04;;;;;;;24.08;11.75;;;;;;;-146.25;100.00;52704.78;2079889;28;33342;-65
2024/02/13 02:38:06;;;;;;;23.98;11.43;;;;;;;-146.25;100.00;52660.19;2080253;28;31461;-65
2024/02/13 02:39:08;;;;;;;21.15;11.65;;;;;;;-146.25;100.00;52747.38;2081028;28;20045;-65
2024/02/13 02:40:12;;;;;;;29.13;12.07;;;;;;;-146.25;100.00;52690.59;2080223;28;36410;-64
2024/02/13 02:41:14;;;;;;;30.40;12.20;;;;;;;-146.25;100.00;52664.22;2080418;28;32727;-65
2024/02/13 02:42:16;;;;;;;25.42;11.48;;;;;;;-146.25;100.00;52692.63;2080127;28;31125;-65
2024/02/13 02:43:19;;;;;;;25.95;12.23;;;;;;;-146.25;100.00;52694.66;2081029;28;37550;-65
2024/02/13 02:44:21;;;;;;;27.20;11.98;;;;;;;-146.25;100.00;52710.88;2080356;28;31393;-65
2024/02/13 02:45:23;;;;;;;20.08;11.45;;;;;;;-146.25;100.00;52686.53;2080738;28;20049;-64
2024/02/13 02:46:25;;;;;;;21.00;11.30;;;;;;;-146.25;100.00;52698.72;2080473;28;34310;-65
2024/02/13 02:47:28;;;;;;;21.15;11.98;;;;;;;-146.25;100.00;52658.16;2079773;28;33378;-65
2024/02/13 02:48:30;;;;;;;22.13;11.85;;;;;;;-146.25;100.00;52668.28;2080113;28;35334;-65
2024/02/13 02:49:32;;;;;;;25.70;12.70;;;;;;;-146.25;100.00;52704.78;2080005;28;34527;-65
2024/02/13 02:50:36;;;;;;;25.13;12.23;;;;;;;-146.25;100.00;52678.44;2080001;28;36082;-65
2024/02/13 02:51:42;;;;;;;26.35;12.27;;;;;;;-146.25;100.00;52727.09;2080288;28;36130;-65
2024/02/13 02:52:46;;;;;;;23.40;12.82;;;;;;;-146.25;100.00;52698.72;2079754;28;40259;-65
2024/02/13 02:53:48;;;;;;;22.17;12.68;;;;;;;-146.25;100.00;52702.75;2079716;28;34448;-64
2024/02/13 02:54:50;;;;;;;24.05;12.80;;;;;;;-146.25;100.00;52704.78;2080412;28;28754;-64
2024/02/13 02:55:53;;;;;;;22.80;13.05;;;;;;;-146.25;100.00;52648.00;2079682;28;33686;-63
2024/02/13 02:56:54;;;;;;;26.60;13.65;;;;;;;-146.25;100.00;52718.97;2080399;28;34007;-65
2024/02/13 02:57:56;;;;;;;29.38;13.50;;;;;;;-146.25;100.00;52694.66;2080510;28;26908;-64
2024/02/13 02:58:58;;;;;;;27.50;12.82;;;;;;;-146.25;100.00;52686.53;2080740;28;20123;-64
2024/02/13 03:00:09;;;;;;;29.38;13.98;;;;;;;-146.25;100.00;52716.97;2079982;28;37917;-63
2024/02/13 03:01:13;;;;;;;27.27;13.65;;;;;;;-146.25;100.00;52688.56;2079306;28;33031;-64
2024/02/13 03:02:15;;;;;;;23.92;12.95;;;;;;;-146.25;100.00;52652.06;2080041;28;20792;-65
2024/02/13 03:03:20;;;;;;;27.35;13.35;;;;;;;-146.25;100.00;52716.97;2079817;28;34701;-64
2024/02/13 03:04:22;;;;;;;26.08;13.00;;;;;;;-146.25;100.00;52688.56;2079928;28;32886;-65
2024/02/13 03:05:25;;;;;;;26.50;13.68;;;;;;;-146.25;100.00;52680.47;2080962;28;20069;-64
2024/02/13 03:06:29;;;;;;;24.88;13.75;;;;;;;-146.25;100.00;52688.56;2079813;28;32974;-65
2024/02/13 03:07:31;;;;;;;27.13;14.10;;;;;;;-146.25;100.00;52704.78;2079752;28;33171;-65
2024/02/13 03:08:34;;;;;;;26.35;13.70;;;;;;;-146.25;100.00;52674.38;2080192;28;27997;-65
2024/02/13 03:09:35;;;;;;;24.20;13.77;;;;;;;-146.25;100.00;52690.59;2079241;28;37320;-65
2024/02/13 03:10:37;;;;;;;29.15;14.32;;;;;;;-146.25;100.00;52672.34;2079075;28;35116;-65
2024/02/13 03:11:40;;;;;;;26.67;13.75;;;;;;;-146.25;100.00;52686.53;2080147;28;20038;-65
2024/02/13 03:12:43;;;;;;;28.63;14.27;;;;;;;-146.25;100.00;52688.56;2079258;28;37698;-65
2024/02/13 03:13:45;;;;;;;29.42;14.43;;;;;;;-146.25;100.00;52678.44;2079310;28;32107;-65
2024/02/13 03:14:50;;;;;;;26.20;13.80;;;;;;;-146.25;100.00;52690.59;2079081;28;27310;-64
2024/02/13 03:15:52;;;;;;;27.98;14.23;;;;;;;-146.25;100.00;52678.44;2079502;28;34478;-65
2024/02/13 03:16:56;;;;;;;25.52;13.55;;;;;;;-146.25;100.00;52702.75;2080839;28;20127;-65
2024/02/13 03:17:58;;;;;;;32.50;14.23;;;;;;;-146.25;100.00;52688.56;2079412;28;38239;-65
2024/02/13 03:19:02;;;;;;;29.63;13.88;;;;;;;-146.25;100.00;52668.28;2080183;28;20101;-65
2024/02/13 03:20:10;;;;;;;29.33;14.10;;;;;;;-146.25;100.00;52682.47;2080424;28;20052;-65
2024/02/13 03:21:12;;;;;;;23.83;14.45;;;;;;;-146.25;100.00;52682.47;2079631;28;34334;-65
2024/02/13 03:22:16;;;;;;;27.33;14.52;;;;;;;-146.25;100.00;52668.28;2080301;28;20046;-64
2024/02/13 03:23:18;;;;;;;19.35;12.93;;;;;;;-146.25;100.00;52708.84;2080188;28;20108;-65
2024/02/13 03:24:22;;;;;;;27.17;14.07;;;;;;;-146.25;100.00;52690.59;2079981;28;34681;-65
2024/02/13 03:25:24;;;;;;;34.10;13.82;;;;;;;-146.25;100.00;52670.31;2080191;28;32570;-65
2024/02/13 03:26:26;;;;;;;28.52;14.55;;;;;;;-146.25;100.00;52706.81;2079996;28;30352;-65
2024/02/13 03:27:28;;;;;;;31.58;13.55;;;;;;;-146.25;100.00;52692.63;2079776;28;34341;-65
2024/02/13 03:28:30;;;;;;;25.17;13.35;;;;;;;-146.25;100.00;52678.44;2079835;28;32878;-65
2024/02/13 03:29:34;;;;;;;26.38;14.88;;;;;;;-146.25;100.00;52676.41;2080444;28;20924;-65
2024/02/13 03:30:36;;;;;;;25.15;14.23;;;;;;;-146.25;100.00;52702.75;2079729;28;36162;-65
2024/02/13 03:31:37;;;;;;;30.48;14.35;;;;;;;-146.25;100.00;52676.41;2079552;28;38424;-64
2024/02/13 03:32:39;;;;;;;26.48;14.32;;;;;;;-146.25;100.00;52694.66;2080070;28;31584;-65
2024/02/13 03:33:42;;;;;;;26.45;14.50;;;;;;;-146.25;100.00;52692.63;2079522;28;36453;-64
2024/02/13 03:34:47;;;;;;;26.45;14.07;;;;;;;-146.25;100.00;52666.25;2080123;28;33610;-65
2024/02/13 03:35:48;;;;;;;27.80;14.15;;;;;;;-146.25;100.00;52708.84;2079778;28;31760;-64
2024/02/13 03:36:56;;;;;;;28.25;15.63;;;;;;;-146.25;100.00;52680.47;2079615;28;37468;-65
2024/02/13 03:37:58;;;;;;;27.27;14.70;;;;;;;-146.25;100.00;52684.50;2079252;28;34877;-65
2024/02/13 03:39:00;;;;;;;29.17;15.20;;;;;;;-146.25;100.00;52704.78;2079885;28;36489;-65
2024/02/13 03:40:06;;;;;;;32.25;15.77;;;;;;;-146.25;100.00;52698.72;2079489;28;35366;-65
2024/02/13 03:41:07;;;;;;;25.98;14.15;;;;;;;-146.25;100.00;52688.56;2079846;28;33556;-65
2024/02/13 03:42:10;;;;;;;27.75;15.25;;;;;;;-146.25;100.00;52716.97;2079658;28;38285;-64
2024/02/13 03:43:11;;;;;;;28.23;14.57;;;;;;;-146.25;100.00;52704.78;2080276;28;30362;-65
2024/02/13 03:44:13;;;;;;;30.05;15.27;;;;;;;-146.25;100.00;52712.91;2080252;28;20050;-64
2024/02/13 03:45:15;;;;;;;25.33;14.30;;;;;;;-146.25;100.00;52678.44;2079560;28;37040;-65
2024/02/13 03:46:17;;;;;;;26.67;15.40;;;;;;;-146.25;100.00;52654.09;2080233;28;20088;-64
2024/02/13 03:47:19;;;;;;;32.33;15.35;;;;;;;-146.25;100.00;52692.63;2080083;28;34798;-65
2024/02/13 03:48:21;;;;;;;28.63;15.68;;;;;;;-146.25;100.00;52668.28;2079367;28;36400;-65
2024/02/13 03:49:24;;;;;;;33.85;16.67;;;;;;;-146.25;100.00;52676.41;2079322;28;36058;-65
2024/02/13 03:50:26;;;;;;;28.17;15.45;;;;;;;-146.25;100.00;52710.88;2079781;28;33070;-65
2024/02/13 03:51:28;;;;;;;29.75;14.57;;;;;;;-146.25;100.00;52694.66;2080191;28;20038;-64
2024/02/13 03:52:31;;;;;;;28.75;15.95;;;;;;;-146.25;100.00;52656.13;2079362;28;35202;-65
2024/02/13 03:53:35;;;;;;;26.95;15.00;;;;;;;-146.25;100.00;52729.13;2079536;28;32915;-65
2024/02/13 03:54:38;;;;;;;30.88;15.93;;;;;;;-146.25;100.00;52676.41;2080240;28;20045;-64
2024/02/13 03:55:40;;;;;;;28.25;15.48;;;;;;;-146.25;100.00;52684.50;2079680;28;37295;-65
2024/02/13 03:56:42;;;;;;;29.20;16.23;;;;;;;-146.25;100.00;52690.59;2079051;28;35311;-65
2024/02/13 03:57:44;;;;;;;28.70;15.95;;;;;;;-146.25;100.00;52692.63;2080311;28;20409;-65
2024/02/13 03:58:46;;;;;;;30.05;15.50;;;;;;;-146.25;100.00;52694.66;2080352;28;20956;-65
2024/02/13 03:59:47;;;;;;;29.73;16.13;;;;;;;-146.25;100.00;52688.56;2079042;28;37307;-65
2024/02/13 04:00:49;;;;;;;29.75;15.70;;;;;;;-146.25;100.00;52694.66;2079926;28;32065;-65
2024/02/13 04:01:52;;;;;;;29.63;15.52;;;;;;;-146.25;100.00;52676.41;2080270;28;20038;-65
2024/02/13 04:02:54;;;;;;;31.40;16.15;;;;;;;-146.25;100.00;52692.63;2080285;28;35957;-64
2024/02/13 04:03:58;;;;;;;33.08;17.33;;;;;;;-146.25;100.00;52670.31;2079900;28;20081;-65
2024/02/13 04:05:00;;;;;;;34.83;17.00;;;;;;;-146.25;100.00;52704.78;2080622;28;20046;-65
2024/02/13 04:06:03;;;;;;;32.55;16.73;;;;;;;-146.25;100.00;52708.84;2079310;28;35910;-65
2024/02/13 04:07:05;;;;;;;33.65;17.35;;;;;;;-146.25;100.00;52696.69;2079935;28;32013;-65
2024/02/13 04:08:08;;;;;;;36.63;17.90;;;;;;;-146.25;100.00;52704.78;2079984;28;20045;-65
2024/02/13 04:09:10;;;;;;;33.28;16.85;;;;;;;-146.25;100.00;52680.47;2079594;28;36256;-65
2024/02/13 04:10:12;;;;;;;34.35;16.63;;;;;;;-146.25;100.00;52656.13;2079567;28;29603;-65
2024/02/13 04:11:16;;;;;;;36.05;18.52;;;;;;;-146.25;100.00;52696.69;2079857;28;33341;-65
2024/02/13 04:12:18;;;;;;;32.08;17.90;;;;;;;-146.25;100.00;52678.44;2079179;28;34891;-65
2024/02/13 04:13:20;;;;;;;35.13;16.95;;;;;;;-146.25;100.00;52643.97;2080225;28;28630;-65
2024/02/13 04:14:23;;;;;;;30.95;18.35;;;;;;;-146.25;100.00;52682.47;2079763;28;20116;-65
2024/02/13 04:15:25;;;;;;;36.00;18.90;;;;;;;-146.25;100.00;52668.28;2079571;28;38184;-65
2024/02/13 04:16:27;;;;;;;33.10;17.52;;;;;;;-146.25;100.00;52712.91;2079399;28;33922;-65
2024/02/13 04:17:30;;;;;;;33.08;18.50;;;;;;;-146.25;100.00;52696.69;2079637;28;35807;-65
2024/02/13 04:18:33;;;;;;;39.15;19.35;;;;;;;-146.25;100.00;52688.56;2078979;28;38580;-65
2024/02/13 04:19:39;;;;;;;38.38;19.20;;;;;;;-146.25;100.00;52668.28;2079454;28;36375;-65
2024/02/13 04:20:41;;;;;;;40.85;19.15;;;;;;;-146.25;100.00;52684.50;2078861;28;32600;-65
2024/02/13 04:21:42;;;;;;;35.38;19.15;;;;;;;-146.25;100.00;52643.97;2078700;28;32959;-65
2024/02/13 04:22:44;;;;;;;40.05;20.58;;;;;;;-146.25;100.00;52652.06;2079418;28;35623;-65
2024/02/13 04:23:48;;;;;;;46.67;20.55;;;;;;;-146.25;100.00;52694.66;2079587;28;20086;-65
2024/02/13 04:24:52;;;;;;;40.90;20.45;;;;;;;-146.25;100.00;52650.03;2078888;28;35507;-64
2024/02/13 04:25:54;;;;;;;39.47;19.60;;;;;;;-146.25;100.00;52670.31;2079289;28;30644;-64
2024/02/13 04:26:56;;;;;;;38.95;20.23;;;;;;;-146.25;100.00;52712.91;2080643;28;20038;-65
2024/02/13 04:27:58;;;;;;;40.33;20.92;;;;;;;-146.25;100.00;52676.41;2078998;28;35915;-65
2024/02/13 04:29:00;;;;;;;37.28;20.50;;;;;;;-146.25;100.00;52688.56;2079676;28;33258;-65
2024/02/13 04:30:04;;;;;;;38.33;20.77;;;;;;;-146.25;100.00;52684.50;2079174;28;33536;-65
2024/02/13 04:31:06;;;;;;;37.83;20.00;;;;;;;-146.25;100.00;52704.78;2079790;28;32396;-65
2024/02/13 04:32:07;;;;;;;40.13;21.05;;;;;;;-146.25;100.00;52708.84;2079294;28;32429;-65
2024/02/13 04:33:12;;;;;;;41.80;22.50;;;;;;;-146.25;100.00;52712.91;2079765;28;34340;-65
2024/02/13 04:34:14;;;;;;;40.20;21.33;;;;;;;-146.25;100.00;52688.56;2079294;28;33259;-65
2024/02/13 04:35:17;;;;;;;43.33;22.50;;;;;;;-146.25;100.00;52694.66;2079387;28;35863;-65
2024/02/13 04:36:19;;;;;;;47.00;23.15;;;;;;;-146.25;100.00;52688.56;2079804;28;20196;-65
2024/02/13 04:37:23;;;;;;;45.90;22.45;;;;;;;-146.25;100.00;52688.56;2079559;28;35710;-65
2024/02/13 04:38:25;;;;;;;42.47;23.38;;;;;;;-146.25;100.00;52678.44;2079404;28;28293;-65
2024/02/13 04:39:26;;;;;;;39.55;21.95;;;;;;;-146.25;100.00;52704.78;2079479;28;32786;-65
2024/02/13 04:40:29;;;;;;;42.85;23.00;;;;;;;-146.25;100.00;52690.59;2079035;28;35245;-64
2024/02/13 04:41:30;;;;;;;46.53;23.00;;;;;;;-146.25;100.00;52704.78;2080207;28;20108;-65